createdAt,value
2022-07-28T00:02:23.606Z,15.70
2022-07-28T00:04:50.524Z,15.70
2022-07-28T00:07:17.417Z,15.70
2022-07-28T00:09:44.231Z,15.70
2022-07-28T00:12:11.077Z,15.60
2022-07-28T00:14:37.927Z,15.70
2022-07-28T00:17:04.829Z,15.60
2022-07-28T00:19:31.822Z,15.60
2022-07-28T00:21:58.643Z,15.60
2022-07-28T00:24:25.649Z,15.60
2022-07-28T00:26:52.496Z,15.60
2022-07-28T00:29:19.497Z,15.60
2022-07-28T00:31:46.423Z,15.50
2022-07-28T00:34:13.711Z,15.40
2022-07-28T00:36:40.793Z,15.40
2022-07-28T00:39:07.982Z,15.40
2022-07-28T00:41:36.478Z,15.40
2022-07-28T00:44:06.346Z,15.30
2022-07-28T00:46:33.353Z,15.30
2022-07-28T00:49:00.834Z,15.20
2022-07-28T00:51:28.181Z,15.20
2022-07-28T00:53:56.192Z,15.20
2022-07-28T00:56:24.105Z,15.20
2022-07-28T00:58:51.408Z,15.20
2022-07-28T01:01:22.747Z,15.20
2022-07-28T01:03:59.747Z,15.10
2022-07-28T01:06:46.125Z,15.10
2022-07-28T01:09:44.333Z,15.10
2022-07-28T01:12:32.890Z,15.10
2022-07-28T01:15:22.960Z,15.00
2022-07-28T01:17:54.656Z,15.10
2022-07-28T01:20:47.326Z,15.00
2022-07-28T01:23:32.253Z,15.00
2022-07-28T01:26:34.356Z,15.00
2022-07-28T01:29:27.468Z,14.90
2022-07-28T01:32:08.445Z,14.90
2022-07-28T01:34:59.096Z,14.90
2022-07-28T01:37:29.717Z,14.80
2022-07-28T01:40:00.182Z,14.90
2022-07-28T01:42:34.729Z,14.80
2022-07-28T01:45:02.841Z,14.80
2022-07-28T01:47:30.840Z,14.80
2022-07-28T01:50:02.603Z,14.80
2022-07-28T01:52:30.156Z,14.80
2022-07-28T01:54:58.958Z,14.80
2022-07-28T01:57:27.833Z,14.80
2022-07-28T01:59:56.926Z,14.80
2022-07-28T02:02:24.880Z,14.80
2022-07-28T02:04:53.162Z,14.80
2022-07-28T02:07:22.360Z,14.80
2022-07-28T02:09:49.748Z,14.80
2022-07-28T02:12:18.828Z,14.80
2022-07-28T02:14:51.728Z,14.70
2022-07-28T02:17:25.285Z,14.70
2022-07-28T02:19:53.737Z,14.70
2022-07-28T02:22:21.585Z,14.70
2022-07-28T02:24:48.634Z,14.70
2022-07-28T02:27:22.287Z,14.70
2022-07-28T02:29:51.993Z,14.70
2022-07-28T02:32:43.008Z,14.70
2022-07-28T02:35:29.652Z,14.60
2022-07-28T02:38:06.416Z,14.60
2022-07-28T02:40:38.577Z,14.60
2022-07-28T02:43:10.115Z,14.60
2022-07-28T02:45:41.698Z,14.60
2022-07-28T02:48:13.225Z,14.50
2022-07-28T02:50:42.937Z,14.50
2022-07-28T02:53:15.559Z,14.50
2022-07-28T02:55:46.208Z,14.50
2022-07-28T02:58:15.575Z,14.50
2022-07-28T03:00:43.039Z,14.50
2022-07-28T03:03:10.648Z,14.50
2022-07-28T03:05:39.840Z,14.50
2022-07-28T03:08:06.735Z,14.60
2022-07-28T03:10:34.855Z,14.50
2022-07-28T03:13:03.983Z,14.50
2022-07-28T03:15:32.056Z,14.50
2022-07-28T03:18:00.552Z,14.50
2022-07-28T03:20:27.988Z,14.50
2022-07-28T03:22:55.432Z,14.50
2022-07-28T03:25:41.011Z,14.50
2022-07-28T03:28:13.048Z,14.50
2022-07-28T03:30:43.100Z,14.40
2022-07-28T03:33:10.245Z,14.40
2022-07-28T03:35:39.719Z,14.40
2022-07-28T03:38:11.561Z,14.40
2022-07-28T03:40:39.918Z,14.40
2022-07-28T03:43:09.669Z,14.30
2022-07-28T03:45:37.359Z,14.30
2022-07-28T03:48:08.434Z,14.30
2022-07-28T03:50:35.662Z,14.30
2022-07-28T03:53:03.111Z,14.30
2022-07-28T03:55:30.437Z,14.30
2022-07-28T03:57:57.734Z,14.20
2022-07-28T04:00:25.859Z,14.20
2022-07-28T04:02:52.880Z,14.20
2022-07-28T04:05:20.340Z,14.20
2022-07-28T04:07:47.351Z,14.20
2022-07-28T04:10:15.858Z,14.20
2022-07-28T04:12:47.276Z,14.20
2022-07-28T04:15:15.684Z,14.30
2022-07-28T04:17:48.664Z,14.30
2022-07-28T04:20:17.247Z,14.20
2022-07-28T04:22:45.138Z,14.20
2022-07-28T04:25:12.991Z,14.20
2022-07-28T04:27:41.091Z,14.20
2022-07-28T04:30:13.466Z,14.20
2022-07-28T04:32:40.968Z,14.20
2022-07-28T04:35:10.507Z,14.20
2022-07-28T04:37:40.494Z,14.20
2022-07-28T04:40:09.900Z,14.20
2022-07-28T04:42:38.503Z,14.30
2022-07-28T04:45:08.729Z,14.30
2022-07-28T04:47:35.670Z,14.20
2022-07-28T04:50:07.581Z,14.20
2022-07-28T04:52:34.453Z,14.20
2022-07-28T04:55:01.431Z,14.20
2022-07-28T04:57:29.960Z,14.20
2022-07-28T04:59:58.020Z,14.20
2022-07-28T05:02:24.857Z,14.20
2022-07-28T05:04:51.944Z,14.30
2022-07-28T05:07:18.937Z,14.30
2022-07-28T05:09:46.096Z,14.30
2022-07-28T05:12:12.986Z,14.30
2022-07-28T05:14:39.947Z,14.30
2022-07-28T05:17:06.906Z,14.40
2022-07-28T05:19:36.026Z,14.40
2022-07-28T05:22:02.855Z,14.40
2022-07-28T05:24:29.655Z,14.40
2022-07-28T05:26:56.440Z,14.50
2022-07-28T05:29:23.561Z,14.60
2022-07-28T05:31:50.564Z,14.70
2022-07-28T05:34:17.719Z,14.70
2022-07-28T05:36:44.620Z,14.80
2022-07-28T05:39:11.407Z,15.00
2022-07-28T05:41:38.280Z,15.40
2022-07-28T05:44:05.257Z,15.50
2022-07-28T05:46:32.422Z,15.70
2022-07-28T05:48:59.349Z,15.90
2022-07-28T05:51:26.740Z,16.00
2022-07-28T05:53:53.581Z,16.00
2022-07-28T05:56:22.021Z,15.80
2022-07-28T05:58:49.369Z,15.80
2022-07-28T06:01:16.309Z,15.70
2022-07-28T06:03:43.140Z,15.60
2022-07-28T06:06:16.380Z,15.50
2022-07-28T06:08:44.839Z,15.60
2022-07-28T06:11:17.939Z,15.60
2022-07-28T06:13:49.509Z,15.50
2022-07-28T06:16:16.390Z,15.60
2022-07-28T06:18:44.025Z,15.60
2022-07-28T06:21:11.051Z,15.60
2022-07-28T06:23:38.107Z,15.70
2022-07-28T06:26:04.900Z,15.80
2022-07-28T06:28:32.919Z,16.00
2022-07-28T06:30:59.863Z,16.10
2022-07-28T06:33:26.832Z,16.60
2022-07-28T06:35:53.760Z,17.00
2022-07-28T06:38:20.752Z,17.40
2022-07-28T06:40:48.547Z,17.60
2022-07-28T06:43:15.447Z,17.70
2022-07-28T06:45:42.346Z,17.80
2022-07-28T06:48:09.222Z,17.90
2022-07-28T06:50:39.288Z,17.90
2022-07-28T06:53:06.391Z,17.80
2022-07-28T06:55:35.326Z,18.00
2022-07-28T06:58:03.657Z,18.10
2022-07-28T07:00:30.888Z,18.30
2022-07-28T07:02:57.886Z,18.60
2022-07-28T07:05:25.889Z,18.50
2022-07-28T07:07:52.754Z,18.40
2022-07-28T07:10:19.587Z,18.30
2022-07-28T07:12:46.399Z,18.40
2022-07-28T07:15:13.315Z,18.70
2022-07-28T07:17:41.856Z,18.80
2022-07-28T07:20:09.836Z,18.80
2022-07-28T07:22:43.012Z,19.00
2022-07-28T07:25:11.902Z,19.20
2022-07-28T07:27:39.378Z,19.30
2022-07-28T07:30:07.638Z,19.10
2022-07-28T07:32:34.877Z,19.00
2022-07-28T07:35:01.726Z,19.00
2022-07-28T07:37:28.635Z,19.20
2022-07-28T07:39:55.662Z,19.50
2022-07-28T07:42:24.626Z,19.50
2022-07-28T07:44:52.331Z,19.70
2022-07-28T07:47:19.359Z,19.40
2022-07-28T07:49:46.728Z,19.50
2022-07-28T07:52:14.582Z,19.80
2022-07-28T07:54:41.881Z,19.80
2022-07-28T07:57:09.618Z,19.90
2022-07-28T07:59:36.637Z,20.00
2022-07-28T08:02:03.861Z,20.40
2022-07-28T08:04:30.829Z,20.40
2022-07-28T08:06:58.025Z,20.50
2022-07-28T08:09:25.200Z,20.70
2022-07-28T08:11:52.105Z,20.80
2022-07-28T08:14:19.131Z,21.00
2022-07-28T08:16:46.074Z,21.20
2022-07-28T08:19:12.881Z,21.20
2022-07-28T08:21:40.844Z,21.50
2022-07-28T08:24:08.048Z,21.60
2022-07-28T08:26:34.930Z,21.70
2022-07-28T08:29:01.824Z,21.70
2022-07-28T08:31:28.789Z,21.60
2022-07-28T08:33:56.641Z,21.60
2022-07-28T08:36:23.566Z,21.80
2022-07-28T08:38:50.523Z,22.00
2022-07-28T08:41:22.715Z,21.90
2022-07-28T08:43:53.941Z,21.90
2022-07-28T08:46:22.849Z,22.00
2022-07-28T08:48:51.050Z,22.00
2022-07-28T08:51:19.085Z,21.80
2022-07-28T08:53:46.495Z,21.80
2022-07-28T08:56:15.812Z,21.90
2022-07-28T08:58:42.789Z,22.30
2022-07-28T09:01:10.979Z,22.40
2022-07-28T09:03:39.386Z,22.50
2022-07-28T09:06:07.492Z,22.50
2022-07-28T09:08:34.668Z,22.40
2022-07-28T09:11:01.827Z,22.50
2022-07-28T09:13:28.829Z,22.60
2022-07-28T09:15:55.820Z,22.60
2022-07-28T09:18:23.112Z,22.70
2022-07-28T09:20:49.970Z,22.50
2022-07-28T09:23:43.212Z,22.80
2022-07-28T09:26:11.471Z,23.10
2022-07-28T09:28:49.272Z,23.20
2022-07-28T09:31:17.520Z,23.30
2022-07-28T09:33:56.609Z,23.00
2022-07-28T09:36:23.891Z,23.10
2022-07-28T09:38:50.960Z,23.20
2022-07-28T09:41:23.810Z,23.10
2022-07-28T09:43:55.411Z,22.90
2022-07-28T09:46:25.694Z,23.00
2022-07-28T09:49:00.398Z,22.70
2022-07-28T09:51:30.535Z,22.90
2022-07-28T09:54:10.753Z,23.10
2022-07-28T09:56:39.493Z,23.10
2022-07-28T09:59:08.119Z,23.00
2022-07-28T10:01:50.676Z,23.10
2022-07-28T10:04:31.767Z,23.30
2022-07-28T10:07:06.102Z,23.40
2022-07-28T10:09:34.045Z,23.40
2022-07-28T10:12:24.797Z,23.10
2022-07-28T10:14:54.924Z,23.30
2022-07-28T10:17:32.688Z,23.50
2022-07-28T10:20:06.362Z,23.50
2022-07-28T10:22:39.556Z,23.30
2022-07-28T10:25:10.565Z,23.20
2022-07-28T10:27:40.389Z,23.20
2022-07-28T10:30:08.158Z,23.40
2022-07-28T10:32:43.624Z,23.40
2022-07-28T10:35:12.918Z,23.40
2022-07-28T10:37:45.648Z,23.20
2022-07-28T10:40:13.849Z,23.20
2022-07-28T10:42:41.368Z,23.10
2022-07-28T10:45:11.499Z,22.90
2022-07-28T10:47:38.373Z,22.90
2022-07-28T10:50:05.828Z,22.90
2022-07-28T10:52:47.361Z,23.20
2022-07-28T10:55:41.899Z,23.20
2022-07-28T10:58:28.597Z,23.10
2022-07-28T11:00:59.568Z,23.10
2022-07-28T11:03:45.064Z,23.10
2022-07-28T11:06:28.000Z,23.30
2022-07-28T11:08:56.604Z,23.20
2022-07-28T11:11:42.347Z,23.30
2022-07-28T11:14:29.543Z,23.30
2022-07-28T11:17:05.533Z,23.40
2022-07-28T11:20:07.228Z,23.50
2022-07-28T11:22:34.899Z,23.40
2022-07-28T11:25:19.021Z,23.60
2022-07-28T11:27:51.744Z,23.90
2022-07-28T11:30:18.914Z,23.70
2022-07-28T11:32:55.773Z,23.70
2022-07-28T11:35:30.270Z,23.70
2022-07-28T11:38:03.400Z,23.80
2022-07-28T11:40:35.057Z,23.90
2022-07-28T11:43:32.040Z,23.90
2022-07-28T11:46:09.534Z,23.90
2022-07-28T11:48:46.727Z,24.10
2022-07-28T11:51:14.276Z,24.30
2022-07-28T11:53:42.110Z,24.20
2022-07-28T11:56:11.491Z,23.90
2022-07-28T11:58:39.796Z,24.10
2022-07-28T12:01:19.591Z,24.10
2022-07-28T12:03:56.185Z,24.30
2022-07-28T12:06:43.453Z,24.30
2022-07-28T12:09:21.953Z,24.10
2022-07-28T12:11:54.169Z,24.00
2022-07-28T12:14:22.604Z,24.10
2022-07-28T12:16:53.440Z,24.20
2022-07-28T12:19:21.973Z,24.30
2022-07-28T12:21:55.756Z,24.30
2022-07-28T12:24:44.983Z,24.40
2022-07-28T12:27:16.938Z,24.40
2022-07-28T12:29:44.025Z,24.50
2022-07-28T12:32:17.532Z,24.40
2022-07-28T12:34:45.450Z,24.40
2022-07-28T12:37:14.246Z,24.50
2022-07-28T12:39:43.255Z,24.60
2022-07-28T12:42:12.359Z,24.50
2022-07-28T12:44:48.032Z,24.20
2022-07-28T12:47:17.593Z,24.10
2022-07-28T12:49:44.850Z,24.10
2022-07-28T12:52:21.984Z,23.80
2022-07-28T12:54:55.670Z,24.00
2022-07-28T12:57:48.848Z,23.90
2022-07-28T13:00:19.650Z,23.90
2022-07-28T13:02:47.405Z,23.90
2022-07-28T13:05:32.843Z,23.80
2022-07-28T13:08:05.730Z,23.80
2022-07-28T13:10:33.048Z,23.70
2022-07-28T13:13:07.663Z,23.60
2022-07-28T13:15:34.520Z,23.60
2022-07-28T13:18:01.480Z,23.60
2022-07-28T13:20:28.591Z,23.50
2022-07-28T13:22:57.297Z,23.40
2022-07-28T13:25:24.377Z,23.40
2022-07-28T13:27:55.370Z,23.30
2022-07-28T13:30:23.536Z,23.10
2022-07-28T13:32:50.619Z,23.00
2022-07-28T13:35:18.689Z,22.90
2022-07-28T13:37:46.054Z,22.90
2022-07-28T13:40:13.195Z,22.90
2022-07-28T13:42:40.060Z,23.10
2022-07-28T13:45:19.651Z,23.10
2022-07-28T13:47:48.344Z,23.10
2022-07-28T13:50:19.642Z,23.10
2022-07-28T13:52:47.015Z,23.00
2022-07-28T13:55:17.666Z,23.00
2022-07-28T13:57:49.274Z,23.10
2022-07-28T14:00:18.077Z,22.90
2022-07-28T14:02:48.667Z,22.90
2022-07-28T14:05:15.877Z,22.90
2022-07-28T14:07:42.961Z,22.70
2022-07-28T14:10:17.239Z,22.70
2022-07-28T14:12:46.040Z,22.70
2022-07-28T14:15:13.535Z,22.50
2022-07-28T14:17:43.538Z,22.40
2022-07-28T14:20:12.241Z,22.40
2022-07-28T14:22:39.146Z,22.40
2022-07-28T14:25:06.316Z,22.50
2022-07-28T14:27:34.256Z,22.40
2022-07-28T14:30:03.574Z,22.50
2022-07-28T14:32:31.928Z,22.50
2022-07-28T14:34:59.035Z,22.50
2022-07-28T14:37:26.545Z,22.70
2022-07-28T14:39:53.638Z,22.50
2022-07-28T14:42:20.520Z,22.50
2022-07-28T14:44:47.637Z,22.50
2022-07-28T14:47:15.538Z,22.60
2022-07-28T14:49:57.888Z,22.50
2022-07-28T14:52:26.887Z,22.50
2022-07-28T14:54:57.614Z,22.40
2022-07-28T14:57:50.404Z,22.30
2022-07-28T15:00:14.537Z,22.30
2022-07-28T15:02:42.169Z,22.30
2022-07-28T15:05:12.670Z,22.40
2022-07-28T15:07:39.680Z,22.30
2022-07-28T15:10:07.140Z,22.20
2022-07-28T15:12:34.027Z,22.30
2022-07-28T15:15:01.299Z,22.30
2022-07-28T15:17:28.241Z,22.20
2022-07-28T15:19:56.809Z,22.20
2022-07-28T15:22:26.187Z,22.20
2022-07-28T15:24:53.715Z,22.10
2022-07-28T15:27:20.669Z,22.10
2022-07-28T15:29:52.291Z,22.20
2022-07-28T15:32:27.133Z,22.20
2022-07-28T15:34:55.705Z,22.20
2022-07-28T15:37:23.046Z,22.10
2022-07-28T15:39:50.004Z,22.10
2022-07-28T15:42:16.849Z,22.10
2022-07-28T15:44:43.770Z,22.10
2022-07-28T15:47:10.635Z,22.00
2022-07-28T15:49:37.436Z,22.00
2022-07-28T15:52:04.506Z,21.90
2022-07-28T15:54:31.472Z,21.90
2022-07-28T15:56:58.373Z,21.90
2022-07-28T15:59:26.773Z,21.80
2022-07-28T16:02:17.230Z,21.80
2022-07-28T16:04:52.232Z,21.70
2022-07-28T16:07:25.328Z,21.70
2022-07-28T16:09:55.399Z,21.70
2022-07-28T16:12:25.255Z,21.60
2022-07-28T16:14:53.981Z,21.60
2022-07-28T16:17:24.638Z,21.50
2022-07-28T16:19:51.811Z,21.50
2022-07-28T16:22:20.080Z,21.50
2022-07-28T16:24:47.583Z,21.50
2022-07-28T16:27:14.781Z,21.40
2022-07-28T16:29:42.079Z,21.30
2022-07-28T16:32:09.208Z,21.30
2022-07-28T16:34:36.193Z,21.40
2022-07-28T16:37:05.850Z,21.40
2022-07-28T16:39:34.082Z,21.20
2022-07-28T16:42:01.648Z,21.30
2022-07-28T16:44:28.864Z,21.40
2022-07-28T16:46:56.022Z,21.40
2022-07-28T16:49:22.995Z,21.40
2022-07-28T16:51:50.242Z,21.30
2022-07-28T16:54:17.663Z,21.40
2022-07-28T16:56:45.774Z,21.30
2022-07-28T16:59:13.018Z,21.30
2022-07-28T17:01:45.635Z,21.30
2022-07-28T17:04:14.289Z,21.20
2022-07-28T17:06:41.746Z,21.30
2022-07-28T17:09:08.698Z,21.30
2022-07-28T17:11:35.777Z,21.20
2022-07-28T17:14:03.559Z,21.30
2022-07-28T17:16:31.076Z,21.20
2022-07-28T17:18:57.983Z,21.10
2022-07-28T17:21:25.703Z,21.10
2022-07-28T17:23:53.063Z,21.10
2022-07-28T17:29:07.100Z,21.10
2022-07-28T17:31:34.059Z,21.10
2022-07-28T17:34:01.397Z,21.10
2022-07-28T17:36:29.258Z,21.00
2022-07-28T17:38:56.178Z,21.00
2022-07-28T17:41:36.054Z,21.00
2022-07-28T17:44:05.795Z,21.00
2022-07-28T17:46:34.944Z,21.00
2022-07-28T17:49:02.469Z,21.10
2022-07-28T17:51:30.698Z,21.00
2022-07-28T17:53:57.804Z,21.00
2022-07-28T17:56:25.274Z,21.00
2022-07-28T17:58:52.891Z,21.00
2022-07-28T18:01:19.882Z,20.90
2022-07-28T18:03:58.303Z,20.90
2022-07-28T18:06:38.350Z,20.80
2022-07-28T18:09:08.334Z,20.80
2022-07-28T18:11:57.707Z,20.80
2022-07-28T18:14:29.733Z,20.80
2022-07-28T18:16:57.916Z,20.80
2022-07-28T18:19:25.591Z,20.80
2022-07-28T18:21:52.496Z,20.70
2022-07-28T18:24:21.930Z,20.70
2022-07-28T18:26:51.453Z,20.70
2022-07-28T18:29:21.485Z,20.60
2022-07-28T18:31:52.838Z,20.60
2022-07-28T18:34:23.308Z,20.50
2022-07-28T18:36:52.145Z,20.50
2022-07-28T18:39:19.027Z,20.40
2022-07-28T18:41:47.779Z,20.40
2022-07-28T18:44:17.310Z,20.30
2022-07-28T18:46:44.902Z,20.30
2022-07-28T18:49:12.092Z,20.30
2022-07-28T18:51:39.543Z,20.30
2022-07-28T18:54:13.409Z,20.30
2022-07-28T18:56:40.509Z,20.20
2022-07-28T18:59:07.415Z,20.20
2022-07-28T19:01:34.414Z,20.10
2022-07-28T19:04:01.458Z,20.00
2022-07-28T19:06:29.305Z,20.10
2022-07-28T19:08:56.418Z,19.90
2022-07-28T19:11:23.233Z,19.90
2022-07-28T19:13:50.086Z,19.80
2022-07-28T19:16:17.056Z,19.80
2022-07-28T19:18:44.032Z,19.70
2022-07-28T19:21:11.016Z,19.70
2022-07-28T19:23:37.826Z,19.70
2022-07-28T19:26:04.639Z,19.60
2022-07-28T19:28:31.498Z,19.60
2022-07-28T19:30:59.858Z,19.60
2022-07-28T19:33:36.817Z,19.50
2022-07-28T19:36:10.755Z,19.50
2022-07-28T19:38:37.880Z,19.40
2022-07-28T19:41:04.737Z,19.40
2022-07-28T19:43:31.528Z,19.40
2022-07-28T19:46:00.126Z,19.30
2022-07-28T19:48:27.650Z,19.40
2022-07-28T19:50:54.654Z,19.30
2022-07-28T19:53:25.332Z,19.30
2022-07-28T19:55:59.441Z,19.30
2022-07-28T19:58:26.332Z,19.20
2022-07-28T20:00:53.755Z,19.10
2022-07-28T20:04:02.016Z,19.20
2022-07-28T20:06:10.824Z,19.10
2022-07-28T20:08:37.696Z,19.10
2022-07-28T20:11:04.690Z,19.10
2022-07-28T20:13:31.573Z,19.10
2022-07-28T20:15:58.400Z,19.00
2022-07-28T20:18:25.228Z,19.00
2022-07-28T20:20:52.082Z,19.00
2022-07-28T20:23:19.445Z,18.90
2022-07-28T20:25:46.729Z,18.90
2022-07-28T20:28:13.669Z,18.90
2022-07-28T20:30:40.657Z,18.90
2022-07-28T20:33:08.196Z,18.80
2022-07-28T20:35:35.219Z,18.80
2022-07-28T20:38:03.376Z,18.80
2022-07-28T20:40:30.211Z,18.80
2022-07-28T20:42:57.053Z,18.70
2022-07-28T20:45:24.066Z,18.70
2022-07-28T20:47:51.010Z,18.70
2022-07-28T20:50:17.922Z,18.60
2022-07-28T20:52:44.809Z,18.60
2022-07-28T20:55:12.339Z,18.60
2022-07-28T20:57:39.155Z,18.60
2022-07-28T21:00:06.633Z,18.50
2022-07-28T21:02:33.790Z,18.50
2022-07-28T21:05:00.762Z,18.60
2022-07-28T21:08:04.834Z,18.50
2022-07-28T21:10:15.444Z,18.60
2022-07-28T21:12:42.584Z,18.50
2022-07-28T21:15:09.896Z,18.50
2022-07-28T21:17:36.985Z,18.50
2022-07-28T21:20:05.904Z,18.50
2022-07-28T21:22:32.789Z,18.50
2022-07-28T21:24:59.574Z,18.40
2022-07-28T21:27:26.524Z,18.40
2022-07-28T21:32:19.201Z,18.40
2022-07-28T21:34:46.197Z,18.40
2022-07-28T21:37:14.086Z,18.40
2022-07-28T21:39:41.043Z,18.40
2022-07-28T21:42:09.120Z,18.30
2022-07-28T21:44:37.588Z,18.30
2022-07-28T21:47:04.643Z,18.20
2022-07-28T21:49:32.397Z,18.30
2022-07-28T21:51:59.860Z,18.20
2022-07-28T21:54:26.895Z,18.20
2022-07-28T21:56:53.981Z,18.20
2022-07-28T21:59:20.877Z,18.20
2022-07-28T22:01:47.797Z,18.10
2022-07-28T22:04:15.191Z,18.10
2022-07-28T22:06:46.160Z,18.10
2022-07-28T22:09:14.540Z,18.00
2022-07-28T22:11:41.631Z,18.00
2022-07-28T22:14:08.675Z,18.00
2022-07-28T22:16:35.590Z,17.90
2022-07-28T22:19:02.937Z,17.90
2022-07-28T22:21:29.986Z,17.90
2022-07-28T22:23:56.863Z,17.90
2022-07-28T22:26:23.659Z,17.90
2022-07-28T22:28:50.505Z,17.80
2022-07-28T22:31:17.396Z,17.80
2022-07-28T22:33:44.251Z,17.70
2022-07-28T22:36:11.152Z,17.70
2022-07-28T22:38:38.008Z,17.70
2022-07-28T22:41:04.839Z,17.70
2022-07-28T22:43:33.379Z,17.70
2022-07-28T22:46:00.361Z,17.60
2022-07-28T22:48:27.370Z,17.60
2022-07-28T22:50:54.288Z,17.60
2022-07-28T22:53:21.212Z,17.50
2022-07-28T22:58:32.617Z,17.50
2022-07-28T23:00:59.495Z,17.40
2022-07-28T23:03:29.000Z,17.30
2022-07-28T23:06:02.116Z,17.30
2022-07-28T23:08:28.992Z,17.30
2022-07-28T23:10:55.856Z,17.20
2022-07-28T23:13:22.849Z,17.20
2022-07-28T23:15:50.406Z,17.20
2022-07-28T23:18:17.339Z,17.10
2022-07-28T23:20:44.876Z,17.10
2022-07-28T23:23:12.710Z,17.10
2022-07-28T23:25:42.745Z,17.10
2022-07-28T23:28:10.447Z,17.00
2022-07-28T23:30:37.807Z,17.00
2022-07-28T23:33:05.502Z,17.00
2022-07-28T23:35:32.539Z,17.00
2022-07-28T23:37:59.467Z,16.90
2022-07-28T23:40:26.450Z,17.00
2022-07-28T23:42:53.337Z,16.90
2022-07-28T23:45:20.227Z,16.90
2022-07-28T23:47:47.125Z,16.80
2022-07-28T23:50:13.985Z,16.90
2022-07-28T23:52:40.831Z,16.80
2022-07-28T23:55:08.182Z,16.80
2022-07-28T23:57:35.096Z,16.80
